Terminal Aerodrome Forecast
Issued by NWS

Home | Current Version | Previous Version | Text Only | Print | Product List | Glossary On
Versions: 1 2 3 4 5 6 7 8 9 10 11 12 13 14 15 16 17 18 19
000
FTUS43 KDVN 201100
TAFBRL
TAF
KBRL 201120Z 2012/2112 18005KT P6SM SKC
     FM201500 18008KT P6SM SCT050 BKN250
     FM210100 17005KT P6SM SKC=

USA.gov is the U.S. government's official web portal to all federal, state and local government web resources and services.